sensor_id;sensor_type;location;lat;lon;timestamp;pressure;altitude;pressure_sealevel;temperature;humidity
58471;BME280;44258;51.288;12.068;2022-12-18T00:00:59;102088.56;;;-8.48;56.75
58471;BME280;44258;51.288;12.068;2022-12-18T00:03:25;102084.41;;;-8.43;57.18
58471;BME280;44258;51.288;12.068;2022-12-18T00:05:54;102088.75;;;-8.43;57.64
58471;BME280;44258;51.288;12.068;2022-12-18T00:08:21;102079.03;;;-8.47;57.03
58471;BME280;44258;51.288;12.068;2022-12-18T00:10:47;102080.66;;;-8.49;57.65
58471;BME280;44258;51.288;12.068;2022-12-18T00:13:14;102075.94;;;-8.57;57.88
58471;BME280;44258;51.288;12.068;2022-12-18T00:15:41;102072.22;;;-8.62;57.84
58471;BME280;44258;51.288;12.068;2022-12-18T00:18:08;102075.59;;;-8.64;57.52
58471;BME280;44258;51.288;12.068;2022-12-18T00:20:39;102068.16;;;-8.73;57.13
58471;BME280;44258;51.288;12.068;2022-12-18T00:23:07;102076.13;;;-8.88;56.36
58471;BME280;44258;51.288;12.068;2022-12-18T00:25:35;102077.53;;;-8.94;55.90
58471;BME280;44258;51.288;12.068;2022-12-18T00:28:06;102073.75;;;-9.00;56.11
58471;BME280;44258;51.288;12.068;2022-12-18T00:30:32;102067.53;;;-9.03;55.78
58471;BME280;44258;51.288;12.068;2022-12-18T00:32:59;102072.16;;;-9.14;56.62
58471;BME280;44258;51.288;12.068;2022-12-18T00:35:26;102065.72;;;-9.04;56.88
58471;BME280;44258;51.288;12.068;2022-12-18T00:37:53;102076.31;;;-9.01;56.64
58471;BME280;44258;51.288;12.068;2022-12-18T00:40:21;102068.41;;;-9.03;56.07
58471;BME280;44258;51.288;12.068;2022-12-18T00:42:48;102077.22;;;-9.01;56.22
58471;BME280;44258;51.288;12.068;2022-12-18T00:45:26;102083.97;;;-9.04;56.79
58471;BME280;44258;51.288;12.068;2022-12-18T00:47:56;102081.53;;;-9.01;56.26
58471;BME280;44258;51.288;12.068;2022-12-18T00:50:24;102079.16;;;-8.97;56.04
58471;BME280;44258;51.288;12.068;2022-12-18T00:52:51;102076.53;;;-8.97;56.37
58471;BME280;44258;51.288;12.068;2022-12-18T00:55:18;102080.56;;;-9.03;56.78
58471;BME280;44258;51.288;12.068;2022-12-18T00:57:50;102082.19;;;-9.05;56.20
58471;BME280;44258;51.288;12.068;2022-12-18T01:00:17;102083.88;;;-9.06;56.27
58471;BME280;44258;51.288;12.068;2022-12-18T01:02:44;102081.66;;;-8.98;56.08
58471;BME280;44258;51.288;12.068;2022-12-18T01:05:12;102091.78;;;-9.04;56.34
58471;BME280;44258;51.288;12.068;2022-12-18T01:07:39;102085.03;;;-9.01;56.23
58471;BME280;44258;51.288;12.068;2022-12-18T01:10:07;102097.31;;;-8.98;55.89
58471;BME280;44258;51.288;12.068;2022-12-18T01:12:34;102091.34;;;-8.96;56.08
58471;BME280;44258;51.288;12.068;2022-12-18T01:15:03;102101.31;;;-9.05;55.88
58471;BME280;44258;51.288;12.068;2022-12-18T01:17:31;102099.19;;;-9.12;55.74
58471;BME280;44258;51.288;12.068;2022-12-18T01:19:57;102115.78;;;-9.10;56.19
58471;BME280;44258;51.288;12.068;2022-12-18T01:22:24;102112.41;;;-9.09;56.18
58471;BME280;44258;51.288;12.068;2022-12-18T01:24:51;102118.25;;;-8.97;56.30
58471;BME280;44258;51.288;12.068;2022-12-18T01:27:17;102120.53;;;-9.03;55.52
58471;BME280;44258;51.288;12.068;2022-12-18T01:29:44;102121.97;;;-8.91;56.21
58471;BME280;44258;51.288;12.068;2022-12-18T01:32:12;102128.47;;;-8.83;55.79
58471;BME280;44258;51.288;12.068;2022-12-18T01:34:39;102134.75;;;-8.80;55.54
58471;BME280;44258;51.288;12.068;2022-12-18T01:37:06;102139.09;;;-8.80;55.85
58471;BME280;44258;51.288;12.068;2022-12-18T01:39:33;102122.63;;;-8.96;55.23
58471;BME280;44258;51.288;12.068;2022-12-18T01:42:01;102122.63;;;-9.12;54.83
58471;BME280;44258;51.288;12.068;2022-12-18T01:45:06;102132.50;;;-9.23;54.76
58471;BME280;44258;51.288;12.068;2022-12-18T01:47:38;102131.34;;;-9.11;55.29
58471;BME280;44258;51.288;12.068;2022-12-18T01:50:09;102133.91;;;-9.13;55.14
58471;BME280;44258;51.288;12.068;2022-12-18T01:52:37;102142.75;;;-9.26;55.43
58471;BME280;44258;51.288;12.068;2022-12-18T01:55:07;102135.84;;;-9.25;55.65
58471;BME280;44258;51.288;12.068;2022-12-18T01:57:34;102139.66;;;-9.35;54.69
58471;BME280;44258;51.288;12.068;2022-12-18T02:00:07;102135.00;;;-9.24;55.46
58471;BME280;44258;51.288;12.068;2022-12-18T02:02:35;102132.25;;;-9.27;55.32
58471;BME280;44258;51.288;12.068;2022-12-18T02:05:03;102148.25;;;-9.36;55.21
58471;BME280;44258;51.288;12.068;2022-12-18T02:07:37;102149.16;;;-9.52;54.91
58471;BME280;44258;51.288;12.068;2022-12-18T02:10:13;102139.56;;;-9.37;55.42
58471;BME280;44258;51.288;12.068;2022-12-18T02:12:45;102135.84;;;-9.25;55.59
58471;BME280;44258;51.288;12.068;2022-12-18T02:15:19;102142.75;;;-9.26;55.67
58471;BME280;44258;51.288;12.068;2022-12-18T02:17:54;102139.81;;;-9.32;55.02
58471;BME280;44258;51.288;12.068;2022-12-18T02:20:26;102140.44;;;-9.36;54.59
58471;BME280;44258;51.288;12.068;2022-12-18T02:23:06;102140.84;;;-9.45;54.43
58471;BME280;44258;51.288;12.068;2022-12-18T02:28:40;102148.06;;;-9.72;55.50
58471;BME280;44258;51.288;12.068;2022-12-18T02:31:11;102136.47;;;-9.62;55.16
58471;BME280;44258;51.288;12.068;2022-12-18T02:33:43;102134.56;;;-9.65;54.88
58471;BME280;44258;51.288;12.068;2022-12-18T02:36:12;102124.13;;;-9.65;55.33
58471;BME280;44258;51.288;12.068;2022-12-18T02:38:42;102129.78;;;-9.57;55.41
58471;BME280;44258;51.288;12.068;2022-12-18T02:41:10;102119.03;;;-9.47;55.00
58471;BME280;44258;51.288;12.068;2022-12-18T02:43:39;102129.06;;;-9.38;55.63
58471;BME280;44258;51.288;12.068;2022-12-18T02:46:29;102138.19;;;-9.30;54.83
58471;BME280;44258;51.288;12.068;2022-12-18T02:49:03;102135.91;;;-9.24;55.63
58471;BME280;44258;51.288;12.068;2022-12-18T02:51:39;102136.81;;;-9.23;55.39
58471;BME280;44258;51.288;12.068;2022-12-18T02:54:20;102142.81;;;-9.41;55.14
58471;BME280;44258;51.288;12.068;2022-12-18T02:56:52;102148.69;;;-9.45;54.73
58471;BME280;44258;51.288;12.068;2022-12-18T02:59:26;102141.34;;;-9.52;54.88
58471;BME280;44258;51.288;12.068;2022-12-18T03:01:58;102147.13;;;-9.41;54.74
58471;BME280;44258;51.288;12.068;2022-12-18T03:04:30;102144.44;;;-9.43;54.71
58471;BME280;44258;51.288;12.068;2022-12-18T03:07:02;102146.25;;;-9.42;54.88
58471;BME280;44258;51.288;12.068;2022-12-18T03:09:33;102141.28;;;-9.37;55.01
58471;BME280;44258;51.288;12.068;2022-12-18T03:12:05;102144.78;;;-9.37;55.30
58471;BME280;44258;51.288;12.068;2022-12-18T03:15:02;102143.47;;;-9.28;55.50
58471;BME280;44258;51.288;12.068;2022-12-18T03:17:31;102151.16;;;-9.31;54.91
58471;BME280;44258;51.288;12.068;2022-12-18T03:20:03;102145.91;;;-9.48;54.34
58471;BME280;44258;51.288;12.068;2022-12-18T03:22:32;102149.28;;;-9.65;55.34
58471;BME280;44258;51.288;12.068;2022-12-18T03:25:00;102163.03;;;-9.68;54.11
58471;BME280;44258;51.288;12.068;2022-12-18T03:27:30;102160.53;;;-9.66;55.46
58471;BME280;44258;51.288;12.068;2022-12-18T03:30:03;102161.03;;;-9.57;55.40
58471;BME280;44258;51.288;12.068;2022-12-18T03:32:38;102155.16;;;-9.53;55.34
58471;BME280;44258;51.288;12.068;2022-12-18T03:35:07;102154.53;;;-9.49;55.25
58471;BME280;44258;51.288;12.068;2022-12-18T03:37:36;102154.38;;;-9.52;54.99
58471;BME280;44258;51.288;12.068;2022-12-18T03:40:04;102161.41;;;-9.66;54.48
58471;BME280;44258;51.288;12.068;2022-12-18T03:42:37;102162.94;;;-9.69;55.18
58471;BME280;44258;51.288;12.068;2022-12-18T03:45:10;102150.16;;;-9.65;55.03
58471;BME280;44258;51.288;12.068;2022-12-18T03:47:42;102157.09;;;-9.65;55.32
58471;BME280;44258;51.288;12.068;2022-12-18T03:50:17;102159.38;;;-9.71;55.17
58471;BME280;44258;51.288;12.068;2022-12-18T03:52:49;102161.75;;;-9.60;56.11
58471;BME280;44258;51.288;12.068;2022-12-18T03:55:18;102151.03;;;-9.49;55.33
58471;BME280;44258;51.288;12.068;2022-12-18T03:57:48;102156.03;;;-9.38;55.41
58471;BME280;44258;51.288;12.068;2022-12-18T04:00:18;102153.91;;;-9.28;55.69
58471;BME280;44258;51.288;12.068;2022-12-18T04:02:48;102154.72;;;-9.29;55.04
58471;BME280;44258;51.288;12.068;2022-12-18T04:05:18;102160.28;;;-9.54;54.19
58471;BME280;44258;51.288;12.068;2022-12-18T04:07:47;102163.84;;;-9.69;54.54
58471;BME280;44258;51.288;12.068;2022-12-18T04:10:16;102165.25;;;-9.59;55.07
58471;BME280;44258;51.288;12.068;2022-12-18T04:12:43;102165.34;;;-9.72;55.10
58471;BME280;44258;51.288;12.068;2022-12-18T04:15:11;102161.72;;;-9.76;54.73
58471;BME280;44258;51.288;12.068;2022-12-18T04:17:45;102174.19;;;-9.85;54.47
58471;BME280;44258;51.288;12.068;2022-12-18T04:20:13;102164.88;;;-9.82;55.05
58471;BME280;44258;51.288;12.068;2022-12-18T04:22:40;102164.31;;;-9.91;55.43
58471;BME280;44258;51.288;12.068;2022-12-18T04:25:07;102152.38;;;-9.87;55.39
58471;BME280;44258;51.288;12.068;2022-12-18T04:27:35;102155.88;;;-9.87;55.01
58471;BME280;44258;51.288;12.068;2022-12-18T04:30:02;102141.44;;;-9.82;54.70
58471;BME280;44258;51.288;12.068;2022-12-18T04:32:29;102146.94;;;-9.92;55.18
58471;BME280;44258;51.288;12.068;2022-12-18T04:34:57;102139.03;;;-9.93;54.76
58471;BME280;44258;51.288;12.068;2022-12-18T04:37:23;102141.00;;;-9.89;54.84
58471;BME280;44258;51.288;12.068;2022-12-18T04:39:50;102141.72;;;-9.92;54.69
58471;BME280;44258;51.288;12.068;2022-12-18T04:42:17;102142.19;;;-9.99;54.33
58471;BME280;44258;51.288;12.068;2022-12-18T04:44:43;102136.47;;;-10.08;54.72
58471;BME280;44258;51.288;12.068;2022-12-18T04:47:11;102144.63;;;-10.02;54.82
58471;BME280;44258;51.288;12.068;2022-12-18T04:49:37;102131.91;;;-10.12;54.84
58471;BME280;44258;51.288;12.068;2022-12-18T04:52:08;102135.84;;;-10.04;54.83
58471;BME280;44258;51.288;12.068;2022-12-18T04:54:35;102142.91;;;-10.02;54.25
58471;BME280;44258;51.288;12.068;2022-12-18T04:57:01;102143.16;;;-9.97;54.56
58471;BME280;44258;51.288;12.068;2022-12-18T04:59:29;102145.84;;;-9.96;54.54
58471;BME280;44258;51.288;12.068;2022-12-18T05:01:55;102141.53;;;-9.95;55.15
58471;BME280;44258;51.288;12.068;2022-12-18T05:04:23;102147.47;;;-9.98;54.93
58471;BME280;44258;51.288;12.068;2022-12-18T05:06:49;102158.88;;;-9.96;55.21
58471;BME280;44258;51.288;12.068;2022-12-18T05:09:17;102146.59;;;-9.98;54.93
58471;BME280;44258;51.288;12.068;2022-12-18T05:11:44;102165.69;;;-9.98;54.66
58471;BME280;44258;51.288;12.068;2022-12-18T05:14:12;102158.63;;;-10.00;54.75
58471;BME280;44258;51.288;12.068;2022-12-18T05:16:38;102164.56;;;-10.03;54.09
58471;BME280;44258;51.288;12.068;2022-12-18T05:19:05;102163.28;;;-10.09;54.74
58471;BME280;44258;51.288;12.068;2022-12-18T05:21:31;102165.59;;;-9.99;54.41
58471;BME280;44258;51.288;12.068;2022-12-18T05:23:59;102163.91;;;-9.99;54.54
58471;BME280;44258;51.288;12.068;2022-12-18T05:26:27;102167.66;;;-9.93;54.48
58471;BME280;44258;51.288;12.068;2022-12-18T05:28:54;102169.25;;;-9.81;54.88
58471;BME280;44258;51.288;12.068;2022-12-18T05:31:20;102171.59;;;-9.70;54.30
58471;BME280;44258;51.288;12.068;2022-12-18T05:33:49;102173.81;;;-9.77;54.47
58471;BME280;44258;51.288;12.068;2022-12-18T05:36:16;102172.31;;;-9.88;54.60
58471;BME280;44258;51.288;12.068;2022-12-18T05:38:42;102182.00;;;-9.85;54.63
58471;BME280;44258;51.288;12.068;2022-12-18T05:41:09;102183.72;;;-9.86;54.56
58471;BME280;44258;51.288;12.068;2022-12-18T05:43:38;102186.41;;;-9.84;54.43
58471;BME280;44258;51.288;12.068;2022-12-18T05:46:06;102178.31;;;-9.89;54.57
58471;BME280;44258;51.288;12.068;2022-12-18T05:48:32;102182.63;;;-9.89;54.18
58471;BME280;44258;51.288;12.068;2022-12-18T05:51:04;102192.06;;;-9.91;54.71
58471;BME280;44258;51.288;12.068;2022-12-18T05:53:31;102189.00;;;-9.99;54.68
58471;BME280;44258;51.288;12.068;2022-12-18T05:56:00;102190.72;;;-10.00;54.74
58471;BME280;44258;51.288;12.068;2022-12-18T05:58:27;102191.63;;;-9.99;54.84
58471;BME280;44258;51.288;12.068;2022-12-18T06:00:56;102192.59;;;-9.97;54.43
58471;BME280;44258;51.288;12.068;2022-12-18T06:03:23;102189.84;;;-10.00;54.29
58471;BME280;44258;51.288;12.068;2022-12-18T06:05:50;102190.81;;;-9.98;54.81
58471;BME280;44258;51.288;12.068;2022-12-18T06:08:17;102199.88;;;-9.91;54.86
58471;BME280;44258;51.288;12.068;2022-12-18T06:10:49;102202.47;;;-9.91;54.42
58471;BME280;44258;51.288;12.068;2022-12-18T06:13:17;102202.38;;;-9.93;54.51
58471;BME280;44258;51.288;12.068;2022-12-18T06:15:43;102203.09;;;-9.96;54.36
58471;BME280;44258;51.288;12.068;2022-12-18T06:18:12;102204.63;;;-9.99;54.59
58471;BME280;44258;51.288;12.068;2022-12-18T06:20:39;102206.09;;;-10.04;54.79
58471;BME280;44258;51.288;12.068;2022-12-18T06:23:07;102195.47;;;-10.07;54.22
58471;BME280;44258;51.288;12.068;2022-12-18T06:25:36;102208.06;;;-10.15;53.93
58471;BME280;44258;51.288;12.068;2022-12-18T06:28:03;102202.94;;;-10.13;54.54
58471;BME280;44258;51.288;12.068;2022-12-18T06:30:29;102204.75;;;-10.12;54.63
58471;BME280;44258;51.288;12.068;2022-12-18T06:32:56;102208.13;;;-10.13;54.01
58471;BME280;44258;51.288;12.068;2022-12-18T06:35:24;102213.72;;;-10.22;54.29
58471;BME280;44258;51.288;12.068;2022-12-18T06:37:51;102213.59;;;-10.24;54.68
58471;BME280;44258;51.288;12.068;2022-12-18T06:40:17;102212.72;;;-10.24;54.76
58471;BME280;44258;51.288;12.068;2022-12-18T06:42:44;102205.91;;;-10.22;54.24
58471;BME280;44258;51.288;12.068;2022-12-18T06:45:11;102199.91;;;-10.21;54.56
58471;BME280;44258;51.288;12.068;2022-12-18T06:47:38;102207.50;;;-10.09;54.42
58471;BME280;44258;51.288;12.068;2022-12-18T06:50:06;102222.22;;;-10.10;54.52
58471;BME280;44258;51.288;12.068;2022-12-18T06:52:34;102211.94;;;-10.23;54.31
58471;BME280;44258;51.288;12.068;2022-12-18T06:55:00;102214.97;;;-10.16;54.25
58471;BME280;44258;51.288;12.068;2022-12-18T06:57:29;102207.25;;;-10.14;53.84
58471;BME280;44258;51.288;12.068;2022-12-18T06:59:56;102208.34;;;-10.10;54.02
58471;BME280;44258;51.288;12.068;2022-12-18T07:02:23;102198.28;;;-10.04;54.17
58471;BME280;44258;51.288;12.068;2022-12-18T07:04:49;102212.28;;;-10.02;53.58
58471;BME280;44258;51.288;12.068;2022-12-18T07:07:17;102210.47;;;-10.03;54.27
58471;BME280;44258;51.288;12.068;2022-12-18T07:09:45;102206.63;;;-10.10;54.15
58471;BME280;44258;51.288;12.068;2022-12-18T07:12:15;102210.94;;;-10.10;53.45
58471;BME280;44258;51.288;12.068;2022-12-18T07:14:42;102212.00;;;-10.07;53.46
58471;BME280;44258;51.288;12.068;2022-12-18T07:17:08;102213.63;;;-10.09;53.89
58471;BME280;44258;51.288;12.068;2022-12-18T07:19:35;102228.94;;;-10.13;54.02
58471;BME280;44258;51.288;12.068;2022-12-18T07:22:02;102228.94;;;-10.13;54.37
58471;BME280;44258;51.288;12.068;2022-12-18T07:24:29;102226.34;;;-10.13;54.19
58471;BME280;44258;51.288;12.068;2022-12-18T07:26:57;102227.44;;;-10.10;53.99
58471;BME280;44258;51.288;12.068;2022-12-18T07:29:23;102231.13;;;-10.06;54.33
58471;BME280;44258;51.288;12.068;2022-12-18T07:31:51;102235.41;;;-10.22;53.83
58471;BME280;44258;51.288;12.068;2022-12-18T07:34:17;102239.97;;;-10.18;53.51
58471;BME280;44258;51.288;12.068;2022-12-18T07:36:44;102238.19;;;-10.04;54.00
58471;BME280;44258;51.288;12.068;2022-12-18T07:39:11;102246.97;;;-9.87;54.05
58471;BME280;44258;51.288;12.068;2022-12-18T07:41:38;102247.88;;;-9.71;53.64
58471;BME280;44258;51.288;12.068;2022-12-18T07:44:10;102243.66;;;-9.84;52.92
58471;BME280;44258;51.288;12.068;2022-12-18T07:46:37;102247.78;;;-9.88;53.32
58471;BME280;44258;51.288;12.068;2022-12-18T07:49:04;102249.66;;;-9.85;53.66
58471;BME280;44258;51.288;12.068;2022-12-18T07:51:30;102247.41;;;-9.79;54.17
58471;BME280;44258;51.288;12.068;2022-12-18T07:53:57;102262.69;;;-10.00;53.58
58471;BME280;44258;51.288;12.068;2022-12-18T07:56:24;102257.84;;;-10.09;54.25
58471;BME280;44258;51.288;12.068;2022-12-18T07:58:50;102249.06;;;-9.96;54.30
58471;BME280;44258;51.288;12.068;2022-12-18T08:01:18;102262.53;;;-9.88;54.48
58471;BME280;44258;51.288;12.068;2022-12-18T08:03:45;102254.97;;;-10.13;53.89
58471;BME280;44258;51.288;12.068;2022-12-18T08:06:12;102264.31;;;-10.17;55.20
58471;BME280;44258;51.288;12.068;2022-12-18T08:08:38;102276.59;;;-10.00;54.85
58471;BME280;44258;51.288;12.068;2022-12-18T08:11:06;102288.59;;;-9.87;55.03
58471;BME280;44258;51.288;12.068;2022-12-18T08:13:33;102281.28;;;-9.64;54.74
58471;BME280;44258;51.288;12.068;2022-12-18T08:16:02;102272.34;;;-9.53;54.07
58471;BME280;44258;51.288;12.068;2022-12-18T08:18:31;102266.34;;;-9.52;54.42
58471;BME280;44258;51.288;12.068;2022-12-18T08:21:07;102277.81;;;-9.33;54.55
58471;BME280;44258;51.288;12.068;2022-12-18T08:23:35;102285.38;;;-9.22;54.39
58471;BME280;44258;51.288;12.068;2022-12-18T08:26:02;102286.56;;;-9.17;53.94
58471;BME280;44258;51.288;12.068;2022-12-18T08:28:29;102284.03;;;-9.15;53.79
58471;BME280;44258;51.288;12.068;2022-12-18T08:30:56;102275.72;;;-9.08;54.15
58471;BME280;44258;51.288;12.068;2022-12-18T08:33:23;102275.09;;;-9.04;54.50
58471;BME280;44258;51.288;12.068;2022-12-18T08:35:51;102274.38;;;-9.01;53.95
58471;BME280;44258;51.288;12.068;2022-12-18T08:38:18;102271.94;;;-8.98;54.80
58471;BME280;44258;51.288;12.068;2022-12-18T08:40:45;102274.41;;;-8.85;54.64
58471;BME280;44258;51.288;12.068;2022-12-18T08:43:11;102272.19;;;-8.77;54.49
58471;BME280;44258;51.288;12.068;2022-12-18T08:45:56;102279.53;;;-8.70;54.88
58471;BME280;44258;51.288;12.068;2022-12-18T08:48:23;102287.59;;;-8.65;54.69
58471;BME280;44258;51.288;12.068;2022-12-18T08:50:55;102289.78;;;-8.57;54.91
58471;BME280;44258;51.288;12.068;2022-12-18T08:53:22;102285.09;;;-8.47;54.74
58471;BME280;44258;51.288;12.068;2022-12-18T08:55:49;102295.34;;;-8.50;55.55
58471;BME280;44258;51.288;12.068;2022-12-18T08:58:16;102288.06;;;-8.40;55.65
58471;BME280;44258;51.288;12.068;2022-12-18T09:00:43;102287.00;;;-8.27;55.60
58471;BME280;44258;51.288;12.068;2022-12-18T09:03:11;102293.03;;;-8.11;55.13
58471;BME280;44258;51.288;12.068;2022-12-18T09:05:39;102289.16;;;-8.02;55.54
58471;BME280;44258;51.288;12.068;2022-12-18T09:08:07;102286.84;;;-7.96;55.13
58471;BME280;44258;51.288;12.068;2022-12-18T09:10:41;102280.31;;;-7.87;55.28
58471;BME280;44258;51.288;12.068;2022-12-18T09:13:09;102288.53;;;-7.80;55.62
58471;BME280;44258;51.288;12.068;2022-12-18T09:15:40;102287.16;;;-7.73;55.98
58471;BME280;44258;51.288;12.068;2022-12-18T09:18:07;102288.13;;;-7.87;55.69
58471;BME280;44258;51.288;12.068;2022-12-18T09:20:34;102279.09;;;-7.94;56.49
58471;BME280;44258;51.288;12.068;2022-12-18T09:23:01;102267.91;;;-7.91;56.94
58471;BME280;44258;51.288;12.068;2022-12-18T09:25:30;102267.19;;;-7.89;57.17
58471;BME280;44258;51.288;12.068;2022-12-18T09:27:58;102254.06;;;-7.90;57.50
58471;BME280;44258;51.288;12.068;2022-12-18T09:30:25;102253.59;;;-7.82;57.32
58471;BME280;44258;51.288;12.068;2022-12-18T09:32:53;102254.84;;;-7.75;58.12
58471;BME280;44258;51.288;12.068;2022-12-18T09:35:19;102260.56;;;-7.64;58.12
58471;BME280;44258;51.288;12.068;2022-12-18T09:37:47;102252.06;;;-7.60;58.82
58471;BME280;44258;51.288;12.068;2022-12-18T09:40:14;102244.44;;;-7.56;58.19
58471;BME280;44258;51.288;12.068;2022-12-18T09:42:45;102249.88;;;-7.51;58.89
58471;BME280;44258;51.288;12.068;2022-12-18T09:45:14;102243.03;;;-7.49;59.28
58471;BME280;44258;51.288;12.068;2022-12-18T09:47:43;102237.78;;;-7.49;59.53
58471;BME280;44258;51.288;12.068;2022-12-18T09:50:22;102232.88;;;-7.43;59.46
58471;BME280;44258;51.288;12.068;2022-12-18T09:52:53;102225.03;;;-7.43;59.31
58471;BME280;44258;51.288;12.068;2022-12-18T09:55:24;102220.34;;;-7.50;60.69
58471;BME280;44258;51.288;12.068;2022-12-18T09:57:57;102221.22;;;-7.49;61.70
58471;BME280;44258;51.288;12.068;2022-12-18T10:00:26;102219.41;;;-7.32;61.56
58471;BME280;44258;51.288;12.068;2022-12-18T10:02:59;102209.53;;;-7.20;61.57
58471;BME280;44258;51.288;12.068;2022-12-18T10:05:34;102208.31;;;-7.09;61.73
58471;BME280;44258;51.288;12.068;2022-12-18T10:08:05;102210.47;;;-7.20;61.97
58471;BME280;44258;51.288;12.068;2022-12-18T10:10:41;102207.59;;;-7.24;62.91
58471;BME280;44258;51.288;12.068;2022-12-18T10:13:18;102198.28;;;-7.19;63.11
58471;BME280;44258;51.288;12.068;2022-12-18T10:15:56;102203.63;;;-7.16;63.31
58471;BME280;44258;51.288;12.068;2022-12-18T10:18:33;102194.00;;;-7.17;63.00
58471;BME280;44258;51.288;12.068;2022-12-18T10:21:08;102200.13;;;-7.17;63.47
58471;BME280;44258;51.288;12.068;2022-12-18T10:23:44;102191.56;;;-6.95;63.03
58471;BME280;44258;51.288;12.068;2022-12-18T10:26:12;102192.09;;;-6.82;62.58
58471;BME280;44258;51.288;12.068;2022-12-18T10:28:41;102194.03;;;-6.98;63.20
58471;BME280;44258;51.288;12.068;2022-12-18T10:31:13;102199.75;;;-6.87;63.25
58471;BME280;44258;51.288;12.068;2022-12-18T10:33:42;102198.28;;;-6.80;62.95
58471;BME280;44258;51.288;12.068;2022-12-18T10:36:09;102208.50;;;-6.67;63.10
58471;BME280;44258;51.288;12.068;2022-12-18T10:38:36;102209.31;;;-6.48;62.66
58471;BME280;44258;51.288;12.068;2022-12-18T10:41:05;102197.44;;;-6.40;62.39
58471;BME280;44258;51.288;12.068;2022-12-18T10:43:36;102194.41;;;-6.30;62.33
58471;BME280;44258;51.288;12.068;2022-12-18T10:46:17;102193.06;;;-6.20;62.46
58471;BME280;44258;51.288;12.068;2022-12-18T10:48:54;102190.50;;;-6.19;62.20
58471;BME280;44258;51.288;12.068;2022-12-18T10:51:24;102194.47;;;-6.07;61.51
58471;BME280;44258;51.288;12.068;2022-12-18T10:53:56;102189.09;;;-6.10;61.84
58471;BME280;44258;51.288;12.068;2022-12-18T10:56:26;102197.16;;;-6.06;61.83
58471;BME280;44258;51.288;12.068;2022-12-18T10:58:59;102201.38;;;-6.09;62.31
58471;BME280;44258;51.288;12.068;2022-12-18T11:01:31;102199.66;;;-6.09;62.07
58471;BME280;44258;51.288;12.068;2022-12-18T11:04:16;102191.94;;;-6.06;62.59
58471;BME280;44258;51.288;12.068;2022-12-18T11:06:53;102188.91;;;-5.94;62.61
58471;BME280;44258;51.288;12.068;2022-12-18T11:09:22;102188.03;;;-5.74;61.97
58471;BME280;44258;51.288;12.068;2022-12-18T11:11:50;102182.00;;;-5.71;62.14
58471;BME280;44258;51.288;12.068;2022-12-18T11:14:21;102186.22;;;-5.75;62.48
58471;BME280;44258;51.288;12.068;2022-12-18T11:16:52;102180.41;;;-5.67;62.37
58471;BME280;44258;51.288;12.068;2022-12-18T11:19:28;102194.03;;;-5.54;62.16
58471;BME280;44258;51.288;12.068;2022-12-18T11:22:00;102204.66;;;-5.50;62.25
58471;BME280;44258;51.288;12.068;2022-12-18T11:24:30;102200.38;;;-5.48;62.24
58471;BME280;44258;51.288;12.068;2022-12-18T11:27:02;102203.09;;;-5.45;62.07
58471;BME280;44258;51.288;12.068;2022-12-18T11:29:34;102201.41;;;-5.45;61.84
58471;BME280;44258;51.288;12.068;2022-12-18T11:32:27;102202.38;;;-5.41;62.04
58471;BME280;44258;51.288;12.068;2022-12-18T11:35:01;102195.84;;;-5.30;62.04
58471;BME280;44258;51.288;12.068;2022-12-18T11:37:29;102188.09;;;-5.27;61.82
58471;BME280;44258;51.288;12.068;2022-12-18T11:39:59;102197.09;;;-5.20;61.88
58471;BME280;44258;51.288;12.068;2022-12-18T11:42:33;102184.16;;;-5.16;61.93
58471;BME280;44258;51.288;12.068;2022-12-18T11:45:17;102194.72;;;-5.37;62.53
58471;BME280;44258;51.288;12.068;2022-12-18T11:47:52;102196.78;;;-5.05;61.90
58471;BME280;44258;51.288;12.068;2022-12-18T11:50:24;102187.88;;;-5.10;61.90
58471;BME280;44258;51.288;12.068;2022-12-18T11:52:51;102191.47;;;-5.07;61.97
58471;BME280;44258;51.288;12.068;2022-12-18T11:55:27;102188.19;;;-5.01;61.99
58471;BME280;44258;51.288;12.068;2022-12-18T11:58:00;102180.63;;;-4.94;61.48
58471;BME280;44258;51.288;12.068;2022-12-18T12:00:30;102175.59;;;-4.87;61.91
58471;BME280;44258;51.288;12.068;2022-12-18T12:03:14;102174.66;;;-4.89;62.21
58471;BME280;44258;51.288;12.068;2022-12-18T12:05:50;102171.47;;;-4.81;61.60
58471;BME280;44258;51.288;12.068;2022-12-18T12:08:24;102168.25;;;-4.72;61.92
58471;BME280;44258;51.288;12.068;2022-12-18T12:11:04;102170.00;;;-4.73;61.55
58471;BME280;44258;51.288;12.068;2022-12-18T12:13:41;102149.75;;;-4.77;61.14
58471;BME280;44258;51.288;12.068;2022-12-18T12:16:21;102155.72;;;-4.81;61.84
58471;BME280;44258;51.288;12.068;2022-12-18T12:19:02;102141.59;;;-4.84;61.87
58471;BME280;44258;51.288;12.068;2022-12-18T12:21:37;102133.16;;;-4.76;61.75
58471;BME280;44258;51.288;12.068;2022-12-18T12:24:18;102135.88;;;-4.73;61.72
58471;BME280;44258;51.288;12.068;2022-12-18T12:26:52;102131.72;;;-4.67;61.59
58471;BME280;44258;51.288;12.068;2022-12-18T12:29:34;102132.97;;;-4.56;61.38
58471;BME280;44258;51.288;12.068;2022-12-18T12:32:11;102128.06;;;-4.71;62.00
58471;BME280;44258;51.288;12.068;2022-12-18T12:34:49;102140.41;;;-4.93;62.15
58471;BME280;44258;51.288;12.068;2022-12-18T12:37:28;102135.59;;;-4.80;62.46
58471;BME280;44258;51.288;12.068;2022-12-18T12:40:00;102138.56;;;-4.71;62.07
58471;BME280;44258;51.288;12.068;2022-12-18T12:42:32;102135.81;;;-4.74;61.97
58471;BME280;44258;51.288;12.068;2022-12-18T12:45:24;102129.13;;;-4.66;61.96
58471;BME280;44258;51.288;12.068;2022-12-18T12:47:53;102137.63;;;-4.73;62.18
58471;BME280;44258;51.288;12.068;2022-12-18T12:50:22;102135.06;;;-4.72;62.03
58471;BME280;44258;51.288;12.068;2022-12-18T12:52:52;102127.94;;;-4.74;62.61
58471;BME280;44258;51.288;12.068;2022-12-18T12:55:21;102123.94;;;-4.64;62.19